createdAt,value
2022-11-03T00:01:01.646Z,59.61
2022-11-03T00:04:11.062Z,60.03
2022-11-03T00:07:13.268Z,60.09
2022-11-03T00:10:16.217Z,60.00
2022-11-03T00:13:18.445Z,59.95
2022-11-03T00:16:22.527Z,59.92
2022-11-03T00:19:25.015Z,59.83
2022-11-03T00:22:29.549Z,59.87
2022-11-03T00:25:32.028Z,59.55
2022-11-03T00:28:35.328Z,59.69
2022-11-03T00:31:39.789Z,59.86
2022-11-03T00:34:42.618Z,59.86
2022-11-03T00:37:44.775Z,59.84
2022-11-03T00:40:55.642Z,59.84
2022-11-03T00:43:58.705Z,59.76
2022-11-03T00:47:02.785Z,59.72
2022-11-03T00:50:05.278Z,59.40
2022-11-03T00:53:08.004Z,60.00
2022-11-03T00:56:14.381Z,60.24
2022-11-03T00:59:17.424Z,60.25
2022-11-03T01:02:19.839Z,60.24
2022-11-03T01:05:48.794Z,60.06
2022-11-03T01:08:51.283Z,60.28
2022-11-03T01:12:02.446Z,60.32
2022-11-03T01:15:04.847Z,60.25
2022-11-03T01:18:07.320Z,60.40
2022-11-03T01:21:09.564Z,60.36
2022-11-03T01:24:12.506Z,60.38
2022-11-03T01:27:21.212Z,60.41
2022-11-03T01:30:23.640Z,60.41
2022-11-03T01:33:28.105Z,60.19
2022-11-03T01:36:30.676Z,60.04
2022-11-03T01:39:33.086Z,60.49
2022-11-03T01:42:35.654Z,60.79
2022-11-03T01:45:38.000Z,60.50
2022-11-03T01:48:45.767Z,60.81
2022-11-03T01:51:55.618Z,60.77
2022-11-03T01:55:03.789Z,60.36
2022-11-03T01:58:21.094Z,60.20
2022-11-03T02:01:24.015Z,60.63
2022-11-03T02:04:31.640Z,60.60
2022-11-03T02:07:40.369Z,60.60
2022-11-03T02:10:42.673Z,59.96
2022-11-03T02:13:44.923Z,60.86
2022-11-03T02:16:54.827Z,60.99
2022-11-03T02:20:13.981Z,61.11
2022-11-03T02:23:34.601Z,61.05
2022-11-03T02:26:38.627Z,60.77
2022-11-03T02:29:40.611Z,61.07
2022-11-03T02:32:56.810Z,61.41
2022-11-03T02:36:21.299Z,60.85
2022-11-03T02:39:48.534Z,61.43
2022-11-03T02:42:53.401Z,60.91
2022-11-03T02:45:57.551Z,60.92
2022-11-03T02:48:59.629Z,61.09
2022-11-03T02:52:04.326Z,60.87
2022-11-03T02:55:15.767Z,60.53
2022-11-03T02:58:49.593Z,60.72
2022-11-03T03:02:08.789Z,60.90
2022-11-03T03:05:14.614Z,60.79
2022-11-03T03:08:16.943Z,60.78
2022-11-03T03:11:37.869Z,60.92
2022-11-03T03:14:44.457Z,60.53
2022-11-03T03:18:07.686Z,60.84
2022-11-03T03:21:23.675Z,60.69
2022-11-03T03:24:38.164Z,60.57
2022-11-03T03:27:43.796Z,60.50
2022-11-03T03:30:48.700Z,60.53
2022-11-03T03:33:59.671Z,60.56
2022-11-03T03:37:16.658Z,60.60
2022-11-03T03:40:27.539Z,60.27
2022-11-03T03:43:32.731Z,60.79
2022-11-03T03:46:49.938Z,60.95
2022-11-03T03:49:52.381Z,60.81
2022-11-03T03:53:02.077Z,60.97
2022-11-03T03:56:06.807Z,60.54
2022-11-03T03:59:09.085Z,61.29
2022-11-03T04:02:13.200Z,61.25
2022-11-03T04:05:15.478Z,60.75
2022-11-03T04:08:18.762Z,61.00
2022-11-03T04:11:40.005Z,60.99
2022-11-03T04:15:01.760Z,61.09
2022-11-03T04:18:23.592Z,61.31
2022-11-03T04:21:45.016Z,61.04
2022-11-03T04:24:52.044Z,61.04
2022-11-03T04:27:54.582Z,61.19
2022-11-03T04:30:59.600Z,61.26
2022-11-03T04:34:04.977Z,61.20
2022-11-03T04:37:12.632Z,61.07
2022-11-03T04:40:17.082Z,62.08
2022-11-03T04:43:21.628Z,62.03
2022-11-03T04:46:30.838Z,62.09
2022-11-03T04:49:32.740Z,62.04
2022-11-03T04:52:35.168Z,62.02
2022-11-03T04:55:37.473Z,61.91
2022-11-03T04:58:40.189Z,61.67
2022-11-03T05:01:45.503Z,61.74
2022-11-03T05:04:48.443Z,61.78
2022-11-03T05:07:58.933Z,61.65
2022-11-03T05:11:05.409Z,61.66
2022-11-03T05:14:32.666Z,61.41
2022-11-03T05:17:36.195Z,61.41
2022-11-03T05:20:46.815Z,60.91
2022-11-03T05:23:57.014Z,61.27
2022-11-03T05:27:00.310Z,61.46
2022-11-03T05:30:05.483Z,61.59
2022-11-03T05:33:20.424Z,61.25
2022-11-03T05:36:26.262Z,61.26
2022-11-03T05:39:48.579Z,61.28
2022-11-03T05:42:56.434Z,61.35
2022-11-03T05:46:02.401Z,61.30
2022-11-03T05:49:08.009Z,61.12
2022-11-03T05:52:25.828Z,61.21
2022-11-03T05:55:32.605Z,61.35
2022-11-03T05:58:39.822Z,61.29
2022-11-03T06:01:43.877Z,61.08
2022-11-03T06:04:46.711Z,61.60
2022-11-03T06:07:51.560Z,61.74
2022-11-03T06:10:56.054Z,61.61
2022-11-03T06:13:59.713Z,62.16
2022-11-03T06:17:08.851Z,62.16
2022-11-03T06:20:18.684Z,62.13
2022-11-03T06:23:22.511Z,62.02
2022-11-03T06:26:27.697Z,62.02
2022-11-03T06:29:33.587Z,61.77
2022-11-03T06:32:35.968Z,61.70
2022-11-03T06:35:38.935Z,61.78
2022-11-03T06:38:42.124Z,61.64
2022-11-03T06:41:44.382Z,61.50
2022-11-03T06:44:49.630Z,61.50
2022-11-03T06:47:53.667Z,61.52
2022-11-03T06:50:58.716Z,61.66
2022-11-03T06:54:07.240Z,61.57
2022-11-03T06:57:14.924Z,61.70
2022-11-03T07:00:34.022Z,62.24
2022-11-03T07:03:38.242Z,62.33
2022-11-03T07:06:41.181Z,62.38
2022-11-03T07:09:44.672Z,62.35
2022-11-03T07:12:46.993Z,62.70
2022-11-03T07:15:50.436Z,62.97
2022-11-03T07:18:52.619Z,63.24
2022-11-03T07:22:01.282Z,62.63
2022-11-03T07:25:04.392Z,63.07
2022-11-03T07:28:10.076Z,62.90
2022-11-03T07:31:25.521Z,62.78
2022-11-03T07:34:34.112Z,62.48
2022-11-03T07:37:36.872Z,63.45
2022-11-03T07:40:39.745Z,63.31
2022-11-03T07:43:42.024Z,62.53
2022-11-03T07:46:44.838Z,63.23
2022-11-03T07:49:49.014Z,63.05
2022-11-03T07:52:51.493Z,63.49
2022-11-03T07:55:56.851Z,63.20
2022-11-03T07:59:09.299Z,63.31
2022-11-03T08:02:22.882Z,62.97
2022-11-03T08:05:25.632Z,63.17
2022-11-03T08:08:27.785Z,64.83
2022-11-03T08:11:30.426Z,64.69
2022-11-03T08:14:34.646Z,64.31
2022-11-03T08:17:37.047Z,63.53
2022-11-03T08:20:39.177Z,62.77
2022-11-03T08:23:46.157Z,62.70
2022-11-03T08:26:50.334Z,62.85
2022-11-03T08:29:53.055Z,62.63
2022-11-03T08:32:55.973Z,62.94
2022-11-03T08:35:58.758Z,62.72
2022-11-03T08:39:00.952Z,62.03
2022-11-03T08:42:03.963Z,61.63
2022-11-03T08:45:06.688Z,61.36
2022-11-03T08:48:09.773Z,60.97
2022-11-03T08:51:14.485Z,61.43
2022-11-03T08:54:17.470Z,61.37
2022-11-03T08:57:19.906Z,61.07
2022-11-03T09:00:23.165Z,60.95
2022-11-03T09:03:25.379Z,60.81
2022-11-03T09:06:27.918Z,60.77
2022-11-03T09:12:53.821Z,60.51
2022-11-03T09:15:55.706Z,60.33
2022-11-03T09:18:58.186Z,60.23
2022-11-03T09:22:01.986Z,60.20
2022-11-03T09:25:05.943Z,60.19
2022-11-03T09:28:08.433Z,60.07
2022-11-03T09:31:11.402Z,60.18
2022-11-03T09:34:14.158Z,60.29
2022-11-03T09:37:17.553Z,59.97
2022-11-03T09:40:22.348Z,59.70
2022-11-03T09:43:25.003Z,60.35
2022-11-03T09:46:29.385Z,60.17
2022-11-03T09:49:33.989Z,60.07
2022-11-03T09:52:37.215Z,60.33
2022-11-03T09:55:40.270Z,60.18
2022-11-03T09:58:42.382Z,59.78
2022-11-03T10:01:49.122Z,59.70
2022-11-03T10:04:53.603Z,59.59
2022-11-03T10:08:05.205Z,59.61
2022-11-03T10:11:09.485Z,59.24
2022-11-03T10:14:16.097Z,59.40
2022-11-03T10:17:27.364Z,59.24
2022-11-03T10:20:29.732Z,59.18
2022-11-03T10:23:32.026Z,59.24
2022-11-03T10:26:44.484Z,59.49
2022-11-03T10:30:03.524Z,59.71
2022-11-03T10:33:44.693Z,59.61
2022-11-03T10:36:50.557Z,59.56
2022-11-03T10:40:13.249Z,59.59
2022-11-03T10:43:24.868Z,59.79
2022-11-03T10:49:50.569Z,59.77
2022-11-03T10:52:54.035Z,59.78
2022-11-03T10:55:57.519Z,59.68
2022-11-03T10:59:02.012Z,59.66
2022-11-03T11:02:14.092Z,59.60
2022-11-03T11:05:21.964Z,59.63
2022-11-03T11:08:24.723Z,59.57
2022-11-03T11:11:28.405Z,59.58
2022-11-03T11:14:30.603Z,59.54
2022-11-03T11:17:42.451Z,59.61
2022-11-03T11:20:44.659Z,59.54
2022-11-03T11:23:53.334Z,59.54
2022-11-03T11:26:56.045Z,59.62
2022-11-03T11:30:01.758Z,59.57
2022-11-03T11:33:23.457Z,58.90
2022-11-03T11:36:25.943Z,59.80
2022-11-03T11:39:28.313Z,59.79
2022-11-03T11:42:36.443Z,60.02
2022-11-03T11:46:24.134Z,59.99
2022-11-03T11:49:26.937Z,59.97
2022-11-03T11:52:30.659Z,60.31
2022-11-03T11:55:52.166Z,59.79
2022-11-03T11:58:57.636Z,59.69
2022-11-03T12:02:00.575Z,59.44
2022-11-03T12:05:04.058Z,59.41
2022-11-03T12:08:21.166Z,59.64
2022-11-03T12:11:46.106Z,59.54
2022-11-03T12:14:52.292Z,59.58
2022-11-03T12:17:55.337Z,59.04
2022-11-03T12:20:57.782Z,59.33
2022-11-03T12:24:00.095Z,59.15
2022-11-03T12:27:04.716Z,59.11
2022-11-03T12:30:19.409Z,58.88
2022-11-03T12:33:22.115Z,58.75
2022-11-03T12:36:24.937Z,58.55
2022-11-03T12:39:29.475Z,58.00
2022-11-03T12:42:31.818Z,58.63
2022-11-03T12:45:34.333Z,58.55
2022-11-03T12:48:37.664Z,58.56
2022-11-03T12:51:40.353Z,58.29
2022-11-03T12:54:44.063Z,58.21
2022-11-03T12:57:46.684Z,58.14
2022-11-03T13:00:53.811Z,58.31
2022-11-03T13:03:57.961Z,58.17
2022-11-03T13:07:00.322Z,58.03
2022-11-03T13:10:05.186Z,57.93
2022-11-03T13:13:07.754Z,57.77
2022-11-03T13:16:10.514Z,57.78
2022-11-03T13:19:12.884Z,57.75
2022-11-03T13:22:15.733Z,57.84
2022-11-03T13:25:19.006Z,57.78
2022-11-03T13:28:21.635Z,57.77
2022-11-03T13:31:23.883Z,58.06
2022-11-03T13:34:26.440Z,57.65
2022-11-03T13:37:29.841Z,57.36
2022-11-03T13:43:56.118Z,57.62
2022-11-03T13:46:58.806Z,57.43
2022-11-03T13:50:14.183Z,57.29
2022-11-03T14:00:06.195Z,57.39
2022-11-03T14:06:37.503Z,57.15
2022-11-03T14:09:39.935Z,57.15
2022-11-03T14:12:42.430Z,57.08
2022-11-03T14:15:44.495Z,57.04
2022-11-03T14:18:47.294Z,56.98
2022-11-03T14:21:49.439Z,57.02
2022-11-03T14:24:52.934Z,56.99
2022-11-03T14:27:55.614Z,56.96
2022-11-03T14:31:00.197Z,57.05
2022-11-03T14:34:02.629Z,57.07
2022-11-03T14:37:06.498Z,57.05
2022-11-03T14:40:29.791Z,57.16
2022-11-03T14:43:35.096Z,57.15
2022-11-03T14:46:37.305Z,57.17
2022-11-03T14:49:39.905Z,57.08
2022-11-03T14:52:41.852Z,56.71
2022-11-03T14:55:44.818Z,57.26
2022-11-03T14:58:47.121Z,58.36
2022-11-03T15:01:51.766Z,57.88
2022-11-03T15:04:54.019Z,57.53
2022-11-03T15:07:56.552Z,57.19
2022-11-03T15:10:58.669Z,57.07
2022-11-03T15:14:02.923Z,57.21
2022-11-03T15:17:05.118Z,57.09
2022-11-03T15:20:08.420Z,57.06
2022-11-03T15:26:34.124Z,56.97
2022-11-03T15:29:37.793Z,57.06
2022-11-03T15:33:17.975Z,56.96
2022-11-03T15:36:22.983Z,56.95
2022-11-03T15:39:25.752Z,56.92
2022-11-03T15:42:30.638Z,56.85
2022-11-03T15:45:34.336Z,56.82
2022-11-03T15:48:40.136Z,56.86
2022-11-03T15:51:43.432Z,57.02
2022-11-03T15:55:07.562Z,57.05
2022-11-03T16:01:59.700Z,57.08
2022-11-03T16:05:17.744Z,57.35
2022-11-03T16:08:51.296Z,57.73
2022-11-03T16:11:54.263Z,58.12
2022-11-03T16:14:56.334Z,58.52
2022-11-03T16:18:02.968Z,58.62
2022-11-03T16:21:05.245Z,58.46
2022-11-03T16:24:07.997Z,58.10
2022-11-03T16:30:51.238Z,58.12
2022-11-03T16:34:26.445Z,58.05
2022-11-03T16:38:04.815Z,58.06
2022-11-03T16:41:26.347Z,57.89
2022-11-03T16:44:33.031Z,57.86
2022-11-03T16:47:40.172Z,57.93
2022-11-03T16:50:45.099Z,57.84
2022-11-03T16:54:30.712Z,57.94
2022-11-03T16:57:36.153Z,57.94
2022-11-03T17:00:38.267Z,57.99
2022-11-03T17:03:46.561Z,58.07
2022-11-03T17:06:50.906Z,58.20
2022-11-03T17:09:53.721Z,58.42
2022-11-03T17:12:58.817Z,58.59
2022-11-03T17:16:01.674Z,58.61
2022-11-03T17:19:05.256Z,58.59
2022-11-03T17:22:07.997Z,58.77
2022-11-03T17:25:12.340Z,58.88
2022-11-03T17:28:15.586Z,58.91
2022-11-03T17:31:17.750Z,58.94
2022-11-03T17:34:24.019Z,59.20
2022-11-03T17:37:27.088Z,59.21
2022-11-03T17:40:30.189Z,59.32
2022-11-03T17:43:32.272Z,59.38
2022-11-03T17:46:34.930Z,59.45
2022-11-03T17:49:36.944Z,59.53
2022-11-03T17:52:43.740Z,59.57
2022-11-03T17:56:02.851Z,59.75
2022-11-03T17:59:15.788Z,59.90
2022-11-03T18:02:39.181Z,60.37
2022-11-03T18:05:42.650Z,60.24
2022-11-03T18:08:48.350Z,59.94
2022-11-03T18:12:09.254Z,59.96
2022-11-03T18:15:18.033Z,60.14
2022-11-03T18:18:43.745Z,60.23
2022-11-03T18:21:47.260Z,60.40
2022-11-03T18:24:52.856Z,60.45
2022-11-03T18:27:54.843Z,60.65
2022-11-03T18:30:57.459Z,60.62
2022-11-03T18:34:01.562Z,60.85
2022-11-03T18:37:04.150Z,60.58
2022-11-03T18:40:10.093Z,60.99
2022-11-03T18:43:24.603Z,61.19
2022-11-03T18:46:26.924Z,61.10
2022-11-03T18:49:33.645Z,61.12
2022-11-03T18:52:41.177Z,61.05
2022-11-03T18:55:44.056Z,61.11
2022-11-03T18:58:46.192Z,61.15
2022-11-03T19:01:48.901Z,61.22
2022-11-03T19:04:51.214Z,61.15
2022-11-03T19:07:54.799Z,61.20
2022-11-03T19:10:57.759Z,61.23
2022-11-03T19:14:02.101Z,61.24
2022-11-03T19:17:27.932Z,61.28
2022-11-03T19:20:30.703Z,61.26
2022-11-03T19:23:33.309Z,61.31
2022-11-03T19:26:46.583Z,61.26
2022-11-03T19:29:49.233Z,61.30
2022-11-03T19:32:54.819Z,61.32
2022-11-03T19:35:59.857Z,61.38
2022-11-03T19:39:02.825Z,61.58
2022-11-03T19:42:28.252Z,61.60
2022-11-03T19:45:31.676Z,61.63
2022-11-03T19:48:35.891Z,61.88
2022-11-03T19:51:40.735Z,62.13
2022-11-03T19:54:44.330Z,62.24
2022-11-03T19:57:47.290Z,62.22
2022-11-03T20:00:50.647Z,62.17
2022-11-03T20:03:54.042Z,62.57
2022-11-03T20:06:58.156Z,62.83
2022-11-03T20:10:01.908Z,62.76
2022-11-03T20:13:04.579Z,62.85
2022-11-03T20:16:16.330Z,62.93
2022-11-03T20:19:18.348Z,63.43
2022-11-03T20:22:29.739Z,63.23
2022-11-03T20:25:35.347Z,63.11
2022-11-03T20:28:38.348Z,63.13
2022-11-03T20:31:42.926Z,63.16
2022-11-03T20:34:46.776Z,63.11
2022-11-03T20:37:51.014Z,63.11
2022-11-03T20:41:19.254Z,63.11
2022-11-03T20:44:21.777Z,63.04
2022-11-03T20:47:24.636Z,62.94
2022-11-03T20:50:26.630Z,62.92
2022-11-03T20:53:29.097Z,62.91
2022-11-03T20:56:31.288Z,62.89
2022-11-03T20:59:37.757Z,62.78
2022-11-03T21:02:41.633Z,62.66
2022-11-03T21:05:44.476Z,62.62
2022-11-03T21:09:13.347Z,62.53
2022-11-03T21:16:24.218Z,62.52
2022-11-03T21:19:48.867Z,62.45
2022-11-03T21:22:54.076Z,62.93
2022-11-03T21:25:58.249Z,63.50
2022-11-03T21:29:00.198Z,62.94
2022-11-03T21:32:02.697Z,63.22
2022-11-03T21:35:06.473Z,63.61
2022-11-03T21:38:10.496Z,63.14
2022-11-03T21:41:31.335Z,62.95
2022-11-03T21:44:35.199Z,62.35
2022-11-03T21:47:37.137Z,63.32
2022-11-03T21:50:39.706Z,62.95
2022-11-03T21:53:42.039Z,62.90
2022-11-03T21:56:44.582Z,62.77
2022-11-03T21:59:46.901Z,62.69
2022-11-03T22:02:49.460Z,63.04
2022-11-03T22:05:51.705Z,63.73
2022-11-03T22:08:57.730Z,64.78
2022-11-03T22:12:00.155Z,66.33
2022-11-03T22:15:21.742Z,66.10
2022-11-03T22:18:24.443Z,70.01
2022-11-03T22:21:45.870Z,76.91
2022-11-03T22:25:06.533Z,81.25
2022-11-03T22:28:14.175Z,83.38
2022-11-03T22:31:35.208Z,83.17
2022-11-03T22:34:56.286Z,74.46
2022-11-03T22:38:18.790Z,67.83
2022-11-03T22:41:39.723Z,64.81
2022-11-03T22:45:00.192Z,64.05
2022-11-03T22:48:04.815Z,63.80
2022-11-03T22:51:09.901Z,63.75
2022-11-03T22:54:12.685Z,63.75
2022-11-03T22:57:14.911Z,64.03
2022-11-03T23:00:18.510Z,64.02
2022-11-03T23:03:20.779Z,64.08
2022-11-03T23:06:27.321Z,64.04
2022-11-03T23:09:29.580Z,63.81
2022-11-03T23:12:32.230Z,63.81
2022-11-03T23:15:34.320Z,63.75
2022-11-03T23:18:55.131Z,63.70
2022-11-03T23:21:57.916Z,63.55
2022-11-03T23:25:00.620Z,63.53
2022-11-03T23:28:02.922Z,63.41
2022-11-03T23:31:05.528Z,63.34
2022-11-03T23:34:09.204Z,63.25
2022-11-03T23:37:11.527Z,63.22
2022-11-03T23:40:17.227Z,63.05
2022-11-03T23:43:23.403Z,62.97
2022-11-03T23:46:46.419Z,62.79
2022-11-03T23:49:48.884Z,63.74
2022-11-03T23:52:50.783Z,62.81
2022-11-03T23:56:11.822Z,62.55
2022-11-03T23:59:17.020Z,62.55
